createdAt,value
2022-08-05T00:02:51.148Z,66.46
2022-08-05T00:06:04.838Z,66.26
2022-08-05T00:09:19.487Z,66.43
2022-08-05T00:12:22.758Z,67.13
2022-08-05T00:15:54.913Z,67.65
2022-08-05T00:18:49.378Z,66.72
2022-08-05T00:21:54.112Z,67.16
2022-08-05T00:24:56.930Z,66.68
2022-08-05T00:27:59.935Z,65.88
2022-08-05T00:31:05.048Z,65.63
2022-08-05T00:34:54.080Z,65.68
2022-08-05T00:37:50.987Z,65.72
2022-08-05T00:40:59.180Z,64.76
2022-08-05T00:44:03.202Z,64.38
2022-08-05T00:47:06.007Z,64.07
2022-08-05T00:50:09.734Z,64.64
2022-08-05T00:54:00.867Z,64.50
2022-08-05T00:56:36.003Z,64.28
2022-08-05T00:59:44.429Z,64.20
2022-08-05T01:02:48.208Z,64.02
2022-08-05T01:05:54.908Z,64.68
2022-08-05T01:08:57.858Z,64.43
2022-08-05T01:12:18.164Z,65.26
2022-08-05T01:15:36.481Z,65.43
2022-08-05T01:18:48.091Z,66.05
2022-08-05T01:22:24.246Z,65.82
2022-08-05T01:25:53.464Z,66.47
2022-08-05T01:29:13.789Z,67.16
2022-08-05T01:32:20.960Z,69.12
2022-08-05T01:35:51.085Z,68.95
2022-08-05T01:38:53.446Z,68.99
2022-08-05T01:41:58.233Z,71.72
2022-08-05T01:45:02.081Z,72.68
2022-08-05T01:48:10.254Z,73.37
2022-08-05T01:51:16.624Z,73.38
2022-08-05T01:54:25.682Z,73.39
2022-08-05T01:58:10.036Z,72.86
2022-08-05T02:00:58.846Z,72.86
2022-08-05T02:04:03.044Z,73.19
2022-08-05T02:07:06.147Z,72.67
2022-08-05T02:10:11.312Z,72.15
2022-08-05T02:13:53.273Z,72.45
2022-08-05T02:17:03.223Z,71.23
2022-08-05T02:20:11.328Z,70.76
2022-08-05T02:23:17.627Z,71.36
2022-08-05T02:26:38.793Z,69.61
2022-08-05T02:29:58.668Z,69.19
2022-08-05T02:33:04.806Z,68.22
2022-08-05T02:36:15.573Z,67.25
2022-08-05T02:39:21.541Z,67.42
2022-08-05T02:42:26.122Z,67.59
2022-08-05T02:45:52.046Z,67.77
2022-08-05T02:48:57.238Z,66.78
2022-08-05T02:52:04.248Z,67.10
2022-08-05T02:55:10.693Z,67.14
2022-08-05T02:58:16.694Z,68.01
2022-08-05T03:01:27.276Z,68.33
2022-08-05T03:04:30.930Z,69.45
2022-08-05T03:08:01.213Z,69.69
2022-08-05T03:11:53.184Z,70.29
2022-08-05T03:14:21.218Z,69.56
2022-08-05T03:17:23.827Z,67.71
2022-08-05T03:20:27.934Z,67.82
2022-08-05T03:23:30.731Z,67.34
2022-08-05T03:26:38.109Z,67.70
2022-08-05T03:29:46.002Z,66.83
2022-08-05T03:33:05.854Z,66.74
2022-08-05T03:36:12.099Z,67.02
2022-08-05T03:39:20.069Z,67.71
2022-08-05T03:42:32.281Z,68.16
2022-08-05T03:45:58.216Z,69.18
2022-08-05T03:49:02.112Z,69.37
2022-08-05T03:52:38.454Z,70.12
2022-08-05T03:56:05.719Z,70.56
2022-08-05T03:59:07.223Z,71.02
2022-08-05T04:02:14.866Z,71.45
2022-08-05T04:05:21.351Z,70.82
2022-08-05T04:08:34.819Z,70.73
2022-08-05T04:11:47.651Z,71.35
2022-08-05T04:14:57.568Z,72.47
2022-08-05T04:18:06.785Z,71.54
2022-08-05T04:21:10.911Z,72.20
2022-08-05T04:24:19.345Z,69.80
2022-08-05T04:27:33.247Z,70.36
2022-08-05T04:30:45.967Z,70.48
2022-08-05T04:34:17.537Z,70.46
2022-08-05T04:37:11.823Z,70.43
2022-08-05T04:40:17.068Z,70.62
2022-08-05T04:43:22.360Z,71.02
2022-08-05T04:46:28.287Z,70.63
2022-08-05T04:50:01.633Z,69.66
2022-08-05T04:52:53.969Z,69.43
2022-08-05T04:56:32.998Z,68.36
2022-08-05T04:59:24.174Z,66.92
2022-08-05T05:02:43.308Z,66.14
2022-08-05T05:06:39.151Z,65.18
2022-08-05T05:09:14.138Z,63.90
2022-08-05T05:12:19.963Z,63.70
2022-08-05T05:15:57.417Z,61.98
2022-08-05T05:19:16.531Z,60.71
2022-08-05T05:22:22.620Z,61.92
2022-08-05T05:25:40.358Z,60.85
2022-08-05T05:28:45.049Z,59.19
2022-08-05T05:31:47.774Z,58.39
2022-08-05T05:34:52.314Z,57.42
2022-08-05T05:38:01.971Z,57.02
2022-08-05T05:41:05.348Z,56.80
2022-08-05T05:44:35.744Z,56.51
2022-08-05T05:48:06.094Z,56.34
2022-08-05T05:50:57.614Z,55.46
2022-08-05T05:54:03.377Z,55.72
2022-08-05T05:57:05.842Z,55.21
2022-08-05T06:00:19.597Z,53.42
2022-08-05T06:03:39.959Z,53.41
2022-08-05T06:06:47.704Z,53.78
2022-08-05T06:10:01.376Z,52.52
2022-08-05T06:13:07.236Z,52.91
2022-08-05T06:16:31.067Z,52.57
2022-08-05T06:19:34.608Z,51.23
2022-08-05T06:22:38.341Z,50.90
2022-08-05T06:26:12.812Z,49.96
2022-08-05T06:29:06.434Z,48.33
2022-08-05T06:32:29.425Z,48.74
2022-08-05T06:36:08.077Z,48.40
2022-08-05T06:38:54.919Z,48.59
2022-08-05T06:42:01.288Z,47.41
2022-08-05T06:45:08.626Z,46.73
2022-08-05T06:48:55.351Z,47.16
2022-08-05T06:51:34.275Z,47.17
2022-08-05T06:54:38.747Z,46.30
2022-08-05T06:57:57.282Z,46.15
2022-08-05T07:01:06.188Z,46.02
2022-08-05T07:04:09.159Z,46.42
2022-08-05T07:07:12.723Z,48.11
2022-08-05T07:10:18.011Z,55.09
2022-08-05T07:13:57.647Z,51.34
2022-08-05T07:18:02.422Z,49.58
2022-08-05T07:20:34.131Z,49.00
2022-08-05T07:23:49.132Z,48.36
2022-08-05T07:26:53.121Z,45.82
2022-08-05T07:30:27.255Z,48.10
2022-08-05T07:33:36.878Z,46.10
2022-08-05T07:36:40.286Z,44.44
2022-08-05T07:40:26.679Z,44.14
2022-08-05T07:43:20.401Z,43.10
2022-08-05T07:46:30.584Z,41.66
2022-08-05T07:49:33.667Z,42.72
2022-08-05T07:52:46.686Z,41.04
2022-08-05T07:56:06.294Z,39.85
2022-08-05T07:59:13.116Z,37.41
2022-08-05T08:02:17.830Z,37.53
2022-08-05T08:05:21.120Z,35.90
2022-08-05T08:08:23.747Z,32.09
2022-08-05T08:11:47.171Z,35.75
2022-08-05T08:14:52.367Z,34.36
2022-08-05T08:17:55.200Z,34.54
2022-08-05T08:21:09.825Z,35.04
2022-08-05T08:24:18.987Z,34.76
2022-08-05T08:27:23.178Z,33.31
2022-08-05T08:30:49.504Z,31.77
2022-08-05T08:33:53.265Z,32.48
2022-08-05T08:37:01.762Z,30.54
2022-08-05T08:40:08.527Z,29.88
2022-08-05T08:44:54.757Z,30.06
2022-08-05T08:46:40.273Z,29.71
2022-08-05T08:50:13.120Z,29.68
2022-08-05T08:53:12.291Z,29.81
2022-08-05T08:56:15.912Z,29.83
2022-08-05T08:59:20.769Z,29.22
2022-08-05T09:02:26.860Z,29.05
2022-08-05T09:05:38.642Z,29.14
2022-08-05T09:08:52.423Z,29.32
2022-08-05T09:11:59.326Z,28.70
2022-08-05T09:15:09.663Z,28.24
2022-08-05T09:18:13.292Z,27.87
2022-08-05T09:21:20.785Z,27.95
2022-08-05T09:24:24.189Z,28.13
2022-08-05T09:28:05.788Z,27.48
2022-08-05T09:31:43.806Z,27.29
2022-08-05T09:34:47.672Z,26.96
2022-08-05T09:38:16.341Z,27.00
2022-08-05T09:41:18.003Z,27.22
2022-08-05T09:44:42.392Z,26.87
2022-08-05T09:47:55.372Z,26.37
2022-08-05T09:51:01.415Z,25.88
2022-08-05T09:54:08.388Z,26.00
2022-08-05T09:57:29.272Z,25.57
2022-08-05T10:00:38.353Z,25.20
2022-08-05T10:03:58.528Z,25.21
2022-08-05T10:07:01.797Z,25.37
2022-08-05T10:10:38.414Z,25.33
2022-08-05T10:13:47.835Z,25.39
2022-08-05T10:16:53.504Z,25.46
2022-08-05T10:20:04.207Z,25.29
2022-08-05T10:23:22.196Z,24.70
2022-08-05T10:26:48.963Z,24.97
2022-08-05T10:30:41.567Z,25.20
2022-08-05T10:33:17.543Z,24.94
2022-08-05T10:36:23.552Z,24.76
2022-08-05T10:40:03.138Z,24.74
2022-08-05T10:43:04.904Z,24.56
2022-08-05T10:46:10.540Z,24.29
2022-08-05T10:49:16.597Z,24.82
2022-08-05T10:52:49.656Z,24.57
2022-08-05T10:56:21.272Z,24.78
2022-08-05T11:00:03.194Z,23.92
2022-08-05T11:03:23.652Z,23.39
2022-08-05T11:06:30.746Z,24.32
2022-08-05T11:09:46.366Z,23.87
2022-08-05T11:12:54.244Z,23.63
2022-08-05T11:16:47.817Z,23.26
2022-08-05T11:20:11.337Z,22.56
2022-08-05T11:23:33.208Z,23.12
2022-08-05T11:26:36.578Z,22.73
2022-08-05T11:29:41.007Z,21.56
2022-08-05T11:32:43.649Z,21.90
2022-08-05T11:36:02.784Z,22.36
2022-08-05T11:39:12.195Z,22.39
2022-08-05T11:42:18.561Z,22.82
2022-08-05T11:45:26.771Z,22.47
2022-08-05T11:48:44.748Z,22.26
2022-08-05T11:51:53.404Z,22.32
2022-08-05T11:54:57.504Z,22.28
2022-08-05T11:58:09.556Z,22.83
2022-08-05T12:01:22.417Z,22.11
2022-08-05T12:04:27.292Z,22.57
2022-08-05T12:08:09.139Z,22.61
2022-08-05T12:11:05.699Z,23.14
2022-08-05T12:14:10.327Z,22.67
2022-08-05T12:18:03.202Z,21.74
2022-08-05T12:20:38.712Z,21.83
2022-08-05T12:23:52.967Z,22.16
2022-08-05T12:26:56.746Z,22.19
2022-08-05T12:30:01.420Z,22.41
2022-08-05T12:33:07.300Z,22.83
2022-08-05T12:36:30.652Z,22.55
2022-08-05T12:39:37.321Z,21.89
2022-08-05T12:42:41.448Z,21.35
2022-08-05T12:45:51.464Z,21.28
2022-08-05T12:49:00.965Z,21.28
2022-08-05T12:52:23.922Z,21.43
2022-08-05T12:55:32.465Z,21.35
2022-08-05T12:58:49.408Z,21.36
2022-08-05T13:02:06.884Z,21.34
2022-08-05T13:05:14.504Z,21.57
2022-08-05T13:08:18.583Z,21.32
2022-08-05T13:12:01.952Z,21.29
2022-08-05T13:15:05.689Z,21.79
2022-08-05T13:18:10.768Z,21.52
2022-08-05T13:21:14.221Z,21.55
2022-08-05T13:24:36.265Z,20.89
2022-08-05T13:27:42.849Z,20.72
2022-08-05T13:30:45.829Z,20.72
2022-08-05T13:34:22.684Z,20.81
2022-08-05T13:37:13.853Z,20.47
2022-08-05T13:40:48.124Z,19.97
2022-08-05T13:43:55.231Z,20.10
2022-08-05T13:47:04.971Z,20.08
2022-08-05T13:50:16.527Z,19.90
2022-08-05T13:53:19.710Z,19.79
2022-08-05T13:56:22.323Z,20.25
2022-08-05T13:59:27.005Z,19.39
2022-08-05T14:02:31.370Z,19.82
2022-08-05T14:06:25.039Z,19.57
2022-08-05T14:08:59.413Z,19.87
2022-08-05T14:12:17.705Z,19.91
2022-08-05T14:16:04.692Z,20.49
2022-08-05T14:18:49.244Z,19.77
2022-08-05T14:22:11.814Z,19.53
2022-08-05T14:25:21.394Z,19.93
2022-08-05T14:28:27.066Z,19.79
2022-08-05T14:32:03.641Z,19.99
2022-08-05T14:34:53.835Z,19.85
2022-08-05T14:37:59.476Z,19.67
2022-08-05T14:41:07.459Z,19.42
2022-08-05T14:44:20.412Z,19.06
2022-08-05T14:47:58.478Z,19.02
2022-08-05T14:50:47.797Z,18.97
2022-08-05T14:54:06.630Z,18.76
2022-08-05T14:57:15.107Z,18.38
2022-08-05T15:00:20.011Z,18.57
2022-08-05T15:03:23.032Z,18.37
2022-08-05T15:06:28.009Z,17.67
2022-08-05T15:09:54.271Z,17.62
2022-08-05T15:13:01.142Z,16.45
2022-08-05T15:16:06.766Z,15.76
2022-08-05T15:19:23.487Z,14.32
2022-08-05T15:22:28.184Z,12.50
2022-08-05T15:25:41.111Z,10.98
2022-08-05T15:28:54.016Z,10.18
2022-08-05T15:31:56.585Z,9.91
2022-08-05T15:34:59.378Z,9.64
2022-08-05T15:38:35.451Z,9.04
2022-08-05T15:41:58.584Z,9.25
2022-08-05T15:44:58.108Z,9.13
2022-08-05T15:48:02.411Z,8.94
2022-08-05T15:51:05.963Z,9.15
2022-08-05T15:54:09.031Z,8.40
2022-08-05T15:57:17.621Z,8.87
2022-08-05T16:00:26.258Z,8.49
2022-08-05T16:03:43.585Z,9.15
2022-08-05T16:06:46.085Z,8.12
2022-08-05T16:09:48.904Z,8.04
2022-08-05T16:12:51.540Z,8.36
2022-08-05T16:15:55.071Z,8.04
2022-08-05T16:18:58.191Z,8.69
2022-08-05T16:22:03.732Z,8.86
2022-08-05T16:25:09.915Z,9.48
2022-08-05T16:28:14.159Z,11.15
2022-08-05T16:31:18.266Z,13.00
2022-08-05T16:34:23.444Z,13.93
2022-08-05T16:38:15.604Z,14.95
2022-08-05T16:40:55.446Z,15.72
2022-08-05T16:44:02.617Z,16.39
2022-08-05T16:47:06.069Z,17.20
2022-08-05T16:50:29.541Z,18.42
2022-08-05T16:54:13.526Z,19.90
2022-08-05T16:57:52.553Z,20.01
2022-08-05T17:00:51.558Z,19.96
2022-08-05T17:03:54.317Z,20.43
2022-08-05T17:07:03.176Z,20.76
2022-08-05T17:10:11.062Z,21.67
2022-08-05T17:13:16.933Z,21.94
2022-08-05T17:16:33.005Z,22.88
2022-08-05T17:19:36.575Z,23.78
2022-08-05T17:22:39.268Z,23.57
2022-08-05T17:25:42.162Z,23.83
2022-08-05T17:28:47.233Z,24.56
2022-08-05T17:31:58.270Z,25.35
2022-08-05T17:35:02.245Z,25.45
2022-08-05T17:38:09.598Z,25.85
2022-08-05T17:42:18.620Z,25.28
2022-08-05T17:44:35.951Z,26.00
2022-08-05T17:47:39.070Z,28.01
2022-08-05T17:50:42.668Z,27.67
2022-08-05T17:53:45.895Z,28.08
2022-08-05T17:56:57.342Z,28.50
2022-08-05T18:00:04.947Z,29.80
2022-08-05T18:03:10.918Z,29.87
2022-08-05T18:06:15.246Z,30.60
2022-08-05T18:09:18.492Z,30.46
2022-08-05T18:12:22.251Z,30.98
2022-08-05T18:15:27.658Z,30.58
2022-08-05T18:18:33.997Z,31.00
2022-08-05T18:22:07.342Z,31.23
2022-08-05T18:25:06.663Z,31.66
2022-08-05T18:28:10.004Z,32.42
2022-08-05T18:31:12.681Z,33.04
2022-08-05T18:34:21.543Z,33.84
2022-08-05T18:37:33.639Z,33.73
2022-08-05T18:41:58.336Z,33.95
2022-08-05T18:44:07.942Z,34.07
2022-08-05T18:47:12.140Z,34.61
2022-08-05T18:50:45.310Z,35.25
2022-08-05T18:53:50.797Z,36.26
2022-08-05T18:56:53.297Z,36.02
2022-08-05T19:00:03.129Z,36.13
2022-08-05T19:03:10.326Z,36.38
2022-08-05T19:06:21.665Z,36.95
2022-08-05T19:09:25.306Z,38.53
2022-08-05T19:12:32.162Z,38.59
2022-08-05T19:16:00.144Z,39.46
2022-08-05T19:18:57.974Z,39.27
2022-08-05T19:22:00.598Z,39.38
2022-08-05T19:25:04.213Z,40.33
2022-08-05T19:28:06.915Z,40.41
2022-08-05T19:31:12.985Z,40.97
2022-08-05T19:34:18.629Z,41.18
2022-08-05T19:37:21.611Z,42.54
2022-08-05T19:40:25.168Z,42.93
2022-08-05T19:44:05.326Z,43.64
2022-08-05T19:46:50.616Z,45.98
2022-08-05T19:49:57.393Z,47.23
2022-08-05T19:53:09.358Z,47.87
2022-08-05T19:56:19.757Z,47.68
2022-08-05T19:59:54.586Z,47.16
2022-08-05T20:02:54.024Z,47.28
2022-08-05T20:05:58.011Z,48.09
2022-08-05T20:09:06.121Z,48.14
2022-08-05T20:12:16.688Z,48.60
2022-08-05T20:15:22.992Z,49.44
2022-08-05T20:18:44.123Z,48.96
2022-08-05T20:21:47.580Z,48.42
2022-08-05T20:24:52.885Z,49.20
2022-08-05T20:27:56.710Z,48.25
2022-08-05T20:31:00.851Z,47.29
2022-08-05T20:34:04.494Z,47.84
2022-08-05T20:37:17.829Z,47.97
2022-08-05T20:40:26.933Z,47.63
2022-08-05T20:43:57.461Z,48.88
2022-08-05T20:46:52.479Z,48.03
2022-08-05T20:49:55.232Z,47.95
2022-08-05T20:52:58.016Z,48.09
2022-08-05T20:56:09.030Z,48.38
2022-08-05T20:59:18.936Z,48.91
2022-08-05T21:02:22.615Z,48.92
2022-08-05T21:05:47.690Z,48.95
2022-08-05T21:08:53.285Z,48.99
2022-08-05T21:12:07.741Z,49.08
2022-08-05T21:15:13.865Z,48.87
2022-08-05T21:18:16.388Z,49.43
2022-08-05T21:21:19.274Z,49.02
2022-08-05T21:24:27.235Z,49.83
2022-08-05T21:27:38.619Z,50.13
2022-08-05T21:30:41.955Z,51.12
2022-08-05T21:33:47.532Z,51.68
2022-08-05T21:36:51.874Z,53.35
2022-08-05T21:39:54.720Z,54.35
2022-08-05T21:42:59.223Z,55.55
2022-08-05T21:46:04.039Z,55.96
2022-08-05T21:49:10.026Z,56.95
2022-08-05T21:52:30.671Z,56.65
2022-08-05T21:56:01.577Z,57.25
2022-08-05T21:58:58.061Z,56.47
2022-08-05T22:02:00.596Z,57.07
2022-08-05T22:05:06.155Z,55.84
2022-08-05T22:08:22.150Z,55.61
2022-08-05T22:11:34.721Z,55.41
2022-08-05T22:14:38.790Z,54.99
2022-08-05T22:17:48.713Z,55.14
2022-08-05T22:21:04.032Z,52.80
2022-08-05T22:24:40.534Z,53.78
2022-08-05T22:28:09.028Z,53.50
2022-08-05T22:31:06.597Z,53.10
2022-08-05T22:34:09.092Z,52.88
2022-08-05T22:37:15.714Z,53.68
2022-08-05T22:40:20.345Z,53.72
2022-08-05T22:43:36.974Z,52.93
2022-08-05T22:46:41.168Z,52.99
2022-08-05T22:50:19.304Z,52.65
2022-08-05T22:53:13.087Z,52.90
2022-08-05T22:56:30.140Z,52.89
2022-08-05T22:59:45.803Z,53.28
2022-08-05T23:02:53.732Z,54.08
2022-08-05T23:05:56.617Z,54.82
2022-08-05T23:09:27.919Z,55.37
2022-08-05T23:12:24.350Z,55.52
2022-08-05T23:15:30.007Z,56.13
2022-08-05T23:18:38.510Z,57.30
2022-08-05T23:21:42.941Z,57.73
2022-08-05T23:24:51.419Z,57.92
2022-08-05T23:27:57.805Z,58.18
2022-08-05T23:31:17.535Z,58.92
2022-08-05T23:34:24.686Z,59.39
2022-08-05T23:37:27.436Z,59.98
2022-08-05T23:40:39.590Z,58.89
2022-08-05T23:44:06.520Z,59.36
2022-08-05T23:47:15.396Z,59.58
2022-08-05T23:50:20.194Z,59.21
2022-08-05T23:53:23.346Z,57.90
2022-08-05T23:56:31.079Z,58.44
